createdAt,value
2019-03-29T00:01:28.722Z,11.71
2019-03-29T00:03:56.966Z,11.71
2019-03-29T00:06:25.192Z,11.70
2019-03-29T00:08:53.434Z,11.70
2019-03-29T00:11:21.685Z,11.71
2019-03-29T00:13:50.040Z,11.71
2019-03-29T00:16:18.422Z,11.72
2019-03-29T00:18:46.639Z,11.72
2019-03-29T00:21:14.855Z,11.71
2019-03-29T00:23:43.118Z,11.71
2019-03-29T00:26:11.332Z,11.72
2019-03-29T00:28:39.558Z,11.73
2019-03-29T00:31:07.786Z,11.71
2019-03-29T00:33:36.004Z,11.71
2019-03-29T00:36:04.241Z,11.71
2019-03-29T00:38:32.470Z,11.69
2019-03-29T00:41:00.698Z,11.70
2019-03-29T00:43:28.924Z,11.68
2019-03-29T00:45:57.142Z,11.71
2019-03-29T00:48:25.372Z,11.69
2019-03-29T00:50:53.587Z,11.68
2019-03-29T00:53:21.829Z,11.68
2019-03-29T00:55:50.052Z,11.68
2019-03-29T00:58:18.283Z,11.68
2019-03-29T01:00:46.519Z,11.67
2019-03-29T01:03:14.746Z,11.68
2019-03-29T01:05:43.009Z,11.67
2019-03-29T01:08:11.247Z,11.66
2019-03-29T01:10:39.462Z,11.67
2019-03-29T01:13:07.687Z,11.65
2019-03-29T01:15:35.967Z,11.66
2019-03-29T01:18:04.409Z,11.66
2019-03-29T01:20:32.628Z,11.64
2019-03-29T01:23:00.858Z,11.63
2019-03-29T01:25:29.133Z,11.64
2019-03-29T01:27:57.443Z,11.62
2019-03-29T01:30:25.689Z,11.63
2019-03-29T01:32:53.955Z,11.62
2019-03-29T01:35:22.248Z,11.64
2019-03-29T01:37:50.504Z,11.62
2019-03-29T01:40:18.722Z,11.60
2019-03-29T01:42:46.958Z,11.61
2019-03-29T01:45:15.193Z,11.60
2019-03-29T01:47:43.416Z,11.62
2019-03-29T01:50:11.654Z,11.63
2019-03-29T01:52:39.940Z,11.62
2019-03-29T01:55:08.178Z,11.63
2019-03-29T01:57:36.390Z,11.63
2019-03-29T02:00:05.263Z,11.64
2019-03-29T02:02:33.467Z,11.64
2019-03-29T02:05:01.706Z,11.63
2019-03-29T02:07:29.906Z,11.63
2019-03-29T02:09:58.131Z,11.67
2019-03-29T02:12:26.353Z,11.66
2019-03-29T02:14:54.570Z,11.68
2019-03-29T02:17:22.829Z,11.66
2019-03-29T02:19:51.051Z,11.69
2019-03-29T02:22:19.274Z,11.67
2019-03-29T02:24:47.492Z,11.70
2019-03-29T02:27:15.717Z,11.68
2019-03-29T02:29:43.942Z,11.69
2019-03-29T02:32:12.170Z,11.68
2019-03-29T02:34:40.386Z,11.68
2019-03-29T02:37:08.640Z,11.68
2019-03-29T02:39:36.856Z,11.67
2019-03-29T02:42:05.081Z,11.68
2019-03-29T02:44:34.852Z,11.68
2019-03-29T02:47:03.246Z,11.68
2019-03-29T02:49:31.454Z,11.72
2019-03-29T02:51:59.679Z,11.71
2019-03-29T02:54:27.905Z,11.69
2019-03-29T02:56:56.139Z,11.70
2019-03-29T02:59:24.360Z,11.69
2019-03-29T03:01:52.584Z,11.70
2019-03-29T03:04:20.807Z,11.70
2019-03-29T03:06:49.043Z,11.74
2019-03-29T03:09:17.243Z,11.72
2019-03-29T03:11:45.474Z,11.72
2019-03-29T03:14:13.856Z,11.72
2019-03-29T03:16:42.105Z,11.73
2019-03-29T03:19:10.446Z,11.74
2019-03-29T03:21:38.613Z,11.75
2019-03-29T03:24:06.856Z,11.76
2019-03-29T03:26:35.091Z,11.76
2019-03-29T03:29:03.314Z,11.78
2019-03-29T03:31:31.549Z,11.78
2019-03-29T03:33:59.763Z,11.78
2019-03-29T03:36:28.016Z,11.80
2019-03-29T03:38:56.255Z,11.82
2019-03-29T03:41:24.526Z,11.83
2019-03-29T03:43:52.727Z,11.83
2019-03-29T03:46:21.070Z,11.84
2019-03-29T03:48:49.249Z,11.84
2019-03-29T03:51:17.636Z,11.85
2019-03-29T03:53:45.835Z,11.86
2019-03-29T03:56:14.315Z,11.88
2019-03-29T03:58:42.535Z,11.86
2019-03-29T04:01:10.775Z,11.88
2019-03-29T04:03:39.017Z,11.90
2019-03-29T04:06:07.230Z,11.88
2019-03-29T04:08:35.557Z,11.87
2019-03-29T04:11:03.844Z,11.90
2019-03-29T04:13:32.083Z,11.88
2019-03-29T04:16:00.285Z,11.89
2019-03-29T04:18:28.515Z,11.88
2019-03-29T04:20:56.740Z,11.90
2019-03-29T04:23:24.959Z,11.90
2019-03-29T04:25:53.176Z,11.89
2019-03-29T04:28:21.411Z,11.92
2019-03-29T04:30:49.624Z,11.88
2019-03-29T04:33:17.838Z,11.85
2019-03-29T04:35:46.072Z,11.90
2019-03-29T04:38:14.291Z,11.88
2019-03-29T04:40:42.549Z,11.85
2019-03-29T04:43:10.763Z,11.87
2019-03-29T04:45:38.983Z,11.84
2019-03-29T04:48:07.351Z,11.86
2019-03-29T04:50:35.593Z,11.89
2019-03-29T04:53:03.824Z,11.87
2019-03-29T04:55:32.037Z,11.89
2019-03-29T04:58:00.278Z,11.86
2019-03-29T05:00:28.489Z,11.90
2019-03-29T05:02:56.720Z,11.87
2019-03-29T05:05:24.943Z,11.91
2019-03-29T05:07:53.162Z,11.88
2019-03-29T05:10:22.076Z,11.88
2019-03-29T05:12:50.297Z,11.91
2019-03-29T05:15:18.514Z,11.89
2019-03-29T05:17:46.743Z,11.90
2019-03-29T05:20:14.968Z,11.95
2019-03-29T05:22:43.195Z,11.95
2019-03-29T05:25:11.402Z,11.97
2019-03-29T05:27:39.655Z,12.00
2019-03-29T05:30:07.867Z,11.99
2019-03-29T05:32:36.093Z,11.97
2019-03-29T05:35:05.876Z,11.99
2019-03-29T05:37:34.338Z,12.02
2019-03-29T05:40:02.552Z,12.03
2019-03-29T05:42:30.765Z,12.00
2019-03-29T05:44:58.986Z,12.02
2019-03-29T05:47:27.222Z,12.01
2019-03-29T05:49:55.441Z,12.01
2019-03-29T05:52:23.681Z,11.96
2019-03-29T05:54:51.904Z,12.00
2019-03-29T05:57:20.120Z,12.02
2019-03-29T05:59:48.343Z,12.05
2019-03-29T06:02:16.632Z,12.05
2019-03-29T06:04:44.843Z,12.10
2019-03-29T06:07:13.071Z,12.05
2019-03-29T06:09:41.294Z,12.10
2019-03-29T06:12:09.576Z,12.11
2019-03-29T06:14:37.784Z,12.15
2019-03-29T06:17:06.021Z,12.18
2019-03-29T06:19:34.241Z,11.60
2019-03-29T06:22:02.495Z,12.21
2019-03-29T06:24:30.709Z,12.23
2019-03-29T06:26:58.922Z,12.24
2019-03-29T06:29:27.155Z,12.27
2019-03-29T06:31:55.449Z,12.26
2019-03-29T06:34:23.684Z,12.26
2019-03-29T06:36:52.758Z,12.25
2019-03-29T06:39:21.446Z,12.29
2019-03-29T06:41:49.663Z,12.28
2019-03-29T06:44:17.887Z,12.28
2019-03-29T06:46:46.107Z,12.27
2019-03-29T06:49:14.352Z,12.31
2019-03-29T06:51:42.574Z,12.32
2019-03-29T06:54:10.792Z,12.33
2019-03-29T06:56:39.026Z,12.36
2019-03-29T06:59:07.243Z,12.39
2019-03-29T07:01:35.644Z,12.43
2019-03-29T07:04:03.861Z,12.46
2019-03-29T07:06:32.090Z,12.52
2019-03-29T07:09:00.359Z,12.56
2019-03-29T07:11:28.584Z,12.56
2019-03-29T07:13:58.139Z,12.58
2019-03-29T07:16:26.633Z,12.64
2019-03-29T07:18:54.858Z,12.67
2019-03-29T07:21:23.090Z,12.71
2019-03-29T07:23:51.316Z,12.78
2019-03-29T07:26:19.617Z,12.82
2019-03-29T07:28:47.860Z,12.85
2019-03-29T07:31:16.097Z,12.91
2019-03-29T07:33:44.306Z,12.95
2019-03-29T07:36:12.527Z,12.98
2019-03-29T07:38:40.749Z,13.00
2019-03-29T07:41:08.967Z,13.06
2019-03-29T07:43:37.207Z,13.08
2019-03-29T07:46:05.493Z,13.13
2019-03-29T07:48:33.712Z,13.17
2019-03-29T07:51:01.937Z,13.25
2019-03-29T07:53:30.163Z,13.28
2019-03-29T07:55:58.390Z,13.31
2019-03-29T07:58:26.630Z,13.37
2019-03-29T08:00:54.847Z,13.43
2019-03-29T08:03:23.582Z,13.48
2019-03-29T08:05:52.370Z,13.52
2019-03-29T08:08:24.667Z,13.57
2019-03-29T08:10:53.451Z,13.63
2019-03-29T08:13:20.510Z,13.62
2019-03-29T08:15:48.709Z,13.75
2019-03-29T08:18:16.932Z,13.75
2019-03-29T08:20:45.145Z,13.84
2019-03-29T08:23:13.412Z,13.88
2019-03-29T08:25:41.638Z,13.92
2019-03-29T08:28:09.854Z,13.94
2019-03-29T08:30:38.079Z,14.02
2019-03-29T08:33:06.296Z,14.07
2019-03-29T08:35:34.537Z,14.14
2019-03-29T08:38:05.980Z,14.20
2019-03-29T08:40:32.689Z,14.33
2019-03-29T08:43:00.909Z,14.34
2019-03-29T08:45:29.133Z,14.49
2019-03-29T08:47:57.362Z,14.67
2019-03-29T08:50:25.577Z,14.76
2019-03-29T08:52:53.799Z,14.88
2019-03-29T08:55:22.016Z,15.06
2019-03-29T08:57:50.245Z,15.12
2019-03-29T09:00:29.462Z,15.26
2019-03-29T09:02:57.688Z,15.35
2019-03-29T09:05:25.973Z,15.52
2019-03-29T09:07:54.197Z,15.78
2019-03-29T09:10:28.145Z,15.90
2019-03-29T09:12:56.363Z,16.10
2019-03-29T09:15:24.606Z,16.21
2019-03-29T09:17:52.856Z,16.40
2019-03-29T09:20:21.072Z,16.91
2019-03-29T09:22:49.312Z,16.91
2019-03-29T09:25:20.867Z,16.96
2019-03-29T09:27:47.472Z,17.19
2019-03-29T09:30:15.739Z,17.48
2019-03-29T09:32:44.237Z,17.69
2019-03-29T09:35:12.494Z,17.95
2019-03-29T09:37:40.701Z,18.17
2019-03-29T09:40:08.921Z,18.41
2019-03-29T09:42:37.133Z,18.53
2019-03-29T09:45:07.021Z,18.87
2019-03-29T09:47:40.106Z,18.85
2019-03-29T09:50:10.147Z,19.04
2019-03-29T09:52:36.923Z,19.17
2019-03-29T09:55:05.542Z,19.23
2019-03-29T09:57:38.204Z,19.25
2019-03-29T10:00:19.114Z,18.96
2019-03-29T10:02:39.209Z,19.06
2019-03-29T10:05:07.425Z,19.03
2019-03-29T10:07:35.647Z,19.09
2019-03-29T10:10:05.306Z,19.16
2019-03-29T10:12:43.482Z,19.15
2019-03-29T10:15:05.522Z,19.44
2019-03-29T10:17:33.818Z,19.36
2019-03-29T10:20:02.100Z,19.49
2019-03-29T10:22:30.371Z,19.31
2019-03-29T10:25:01.829Z,19.49
2019-03-29T10:27:28.545Z,19.49
2019-03-29T10:29:56.792Z,19.56
2019-03-29T10:32:25.014Z,19.78
2019-03-29T10:34:53.244Z,19.90
2019-03-29T10:37:21.531Z,20.02
2019-03-29T10:39:49.768Z,20.07
2019-03-29T10:42:18.003Z,20.06
2019-03-29T10:44:49.276Z,20.21
2019-03-29T10:47:16.149Z,20.15
2019-03-29T10:49:44.383Z,20.03
2019-03-29T10:52:12.620Z,20.09
2019-03-29T10:54:40.833Z,20.07
2019-03-29T10:57:09.056Z,19.98
2019-03-29T10:59:37.291Z,19.76
2019-03-29T11:02:05.511Z,19.76
2019-03-29T11:04:33.730Z,19.58
2019-03-29T11:07:01.953Z,19.56
2019-03-29T11:09:30.182Z,19.55
2019-03-29T11:11:58.397Z,19.66
2019-03-29T11:14:26.613Z,19.57
2019-03-29T11:16:54.828Z,19.70
2019-03-29T11:19:23.051Z,19.72
2019-03-29T11:21:51.273Z,19.98
2019-03-29T11:24:19.539Z,20.06
2019-03-29T11:26:47.752Z,20.17
2019-03-29T11:29:15.960Z,20.33
2019-03-29T11:31:44.564Z,20.12
2019-03-29T11:34:12.778Z,20.28
2019-03-29T11:36:41.050Z,20.39
2019-03-29T11:39:09.264Z,20.44
2019-03-29T11:41:37.483Z,20.57
2019-03-29T11:44:05.699Z,20.38
2019-03-29T11:46:33.917Z,20.48
2019-03-29T11:49:02.136Z,20.51
2019-03-29T11:51:30.357Z,20.75
2019-03-29T11:53:58.645Z,20.80
2019-03-29T11:56:26.887Z,20.76
2019-03-29T11:58:55.106Z,21.02
2019-03-29T12:01:23.344Z,20.63
2019-03-29T12:03:51.566Z,21.00
2019-03-29T12:06:19.776Z,20.97
2019-03-29T12:08:48.010Z,21.00
2019-03-29T12:11:16.243Z,21.10
2019-03-29T12:13:44.476Z,21.15
2019-03-29T12:16:12.708Z,21.23
2019-03-29T12:18:40.930Z,21.12
2019-03-29T12:21:09.156Z,21.35
2019-03-29T12:23:37.395Z,21.33
2019-03-29T12:26:05.786Z,21.56
2019-03-29T12:28:34.007Z,21.68
2019-03-29T12:31:02.225Z,21.63
2019-03-29T12:33:30.446Z,21.77
2019-03-29T12:35:58.669Z,21.76
2019-03-29T12:38:26.908Z,21.81
2019-03-29T12:40:55.136Z,21.67
2019-03-29T12:43:23.363Z,21.57
2019-03-29T12:45:51.588Z,21.54
2019-03-29T12:48:19.806Z,20.97
2019-03-29T12:50:48.030Z,21.39
2019-03-29T12:53:16.258Z,21.32
2019-03-29T12:55:44.475Z,21.24
2019-03-29T12:58:12.699Z,21.18
2019-03-29T13:00:40.923Z,21.34
2019-03-29T13:03:09.154Z,21.48
2019-03-29T13:05:37.475Z,21.56
2019-03-29T13:08:05.675Z,21.71
2019-03-29T13:10:33.921Z,21.62
2019-03-29T13:13:02.417Z,21.66
2019-03-29T13:15:30.643Z,21.65
2019-03-29T13:17:58.856Z,21.62
2019-03-29T13:20:27.098Z,21.67
2019-03-29T13:22:55.314Z,21.65
2019-03-29T13:25:23.533Z,21.37
2019-03-29T13:27:56.180Z,21.49
2019-03-29T13:30:22.630Z,21.38
2019-03-29T13:32:51.042Z,21.19
2019-03-29T13:35:19.262Z,21.16
2019-03-29T13:37:47.486Z,21.18
2019-03-29T13:40:15.721Z,21.10
2019-03-29T13:42:43.965Z,21.19
2019-03-29T13:45:12.163Z,21.37
2019-03-29T13:47:40.388Z,21.27
2019-03-29T13:50:08.676Z,21.27
2019-03-29T13:52:36.906Z,21.36
2019-03-29T13:55:06.024Z,21.23
2019-03-29T13:57:34.239Z,21.11
2019-03-29T14:00:02.473Z,21.12
2019-03-29T14:02:30.689Z,21.03
2019-03-29T14:04:58.912Z,21.06
2019-03-29T14:07:27.143Z,20.92
2019-03-29T14:09:55.391Z,21.01
2019-03-29T14:12:23.674Z,20.97
2019-03-29T14:14:51.917Z,20.98
2019-03-29T14:17:20.142Z,20.86
2019-03-29T14:19:48.355Z,20.83
2019-03-29T14:22:16.585Z,20.73
2019-03-29T14:24:44.802Z,20.68
2019-03-29T14:27:13.095Z,20.63
2019-03-29T14:29:41.313Z,20.61
2019-03-29T14:32:09.574Z,20.63
2019-03-29T14:34:37.788Z,20.59
2019-03-29T14:37:06.041Z,20.56
2019-03-29T14:39:34.230Z,20.49
2019-03-29T14:42:02.505Z,20.41
2019-03-29T14:44:30.753Z,20.42
2019-03-29T14:46:58.972Z,20.49
2019-03-29T14:49:27.188Z,20.59
2019-03-29T14:51:55.430Z,20.66
2019-03-29T14:54:23.669Z,20.65
2019-03-29T14:56:51.883Z,20.61
2019-03-29T14:59:20.118Z,20.57
2019-03-29T15:01:48.349Z,20.47
2019-03-29T15:04:16.575Z,20.36
2019-03-29T15:06:44.826Z,20.45
2019-03-29T15:09:13.052Z,20.37
2019-03-29T15:11:41.279Z,20.42
2019-03-29T15:14:09.559Z,20.49
2019-03-29T15:16:38.661Z,20.47
2019-03-29T15:19:06.873Z,20.59
2019-03-29T15:21:35.094Z,20.64
2019-03-29T15:24:03.329Z,20.06
2019-03-29T15:26:31.546Z,20.60
2019-03-29T15:28:59.779Z,20.53
2019-03-29T15:31:28.003Z,20.49
2019-03-29T15:33:56.252Z,20.42
2019-03-29T15:36:24.454Z,20.44
2019-03-29T15:38:52.703Z,20.42
2019-03-29T15:41:20.917Z,20.24
2019-03-29T15:43:49.133Z,20.24
2019-03-29T15:46:17.391Z,20.23
2019-03-29T15:48:45.631Z,20.13
2019-03-29T15:51:13.854Z,20.17
2019-03-29T15:53:42.071Z,20.15
2019-03-29T15:56:10.293Z,20.10
2019-03-29T15:58:38.511Z,20.08
2019-03-29T16:01:06.734Z,19.89
2019-03-29T16:03:34.979Z,19.88
2019-03-29T16:06:03.226Z,19.89
2019-03-29T16:08:31.444Z,19.75
2019-03-29T16:10:59.684Z,19.60
2019-03-29T16:13:27.954Z,19.50
2019-03-29T16:15:56.160Z,19.51
2019-03-29T16:18:24.379Z,19.40
2019-03-29T16:20:52.623Z,19.35
2019-03-29T16:23:20.847Z,19.26
2019-03-29T16:25:49.056Z,19.21
2019-03-29T16:28:17.298Z,19.18
2019-03-29T16:30:45.514Z,19.09
2019-03-29T16:33:13.737Z,18.91
2019-03-29T16:35:41.978Z,18.91
2019-03-29T16:38:10.190Z,18.83
2019-03-29T16:40:38.399Z,18.77
2019-03-29T16:43:06.632Z,18.65
2019-03-29T16:45:47.108Z,18.54
2019-03-29T16:48:06.789Z,18.52
2019-03-29T16:50:35.188Z,18.45
2019-03-29T16:53:03.408Z,18.38
2019-03-29T16:55:31.759Z,18.26
2019-03-29T16:57:59.971Z,18.17
2019-03-29T17:00:28.198Z,18.06
2019-03-29T17:02:56.413Z,17.92
2019-03-29T17:05:24.638Z,17.85
2019-03-29T17:07:52.859Z,17.75
2019-03-29T17:10:21.071Z,17.65
2019-03-29T17:12:52.038Z,17.57
2019-03-29T17:15:19.255Z,17.46
2019-03-29T17:17:47.474Z,17.38
2019-03-29T17:20:15.694Z,17.27
2019-03-29T17:22:43.917Z,17.18
2019-03-29T17:25:12.131Z,17.10
2019-03-29T17:27:40.385Z,16.98
2019-03-29T17:30:09.937Z,16.90
2019-03-29T17:32:38.161Z,16.76
2019-03-29T17:35:06.842Z,16.67
2019-03-29T17:37:35.076Z,16.51
2019-03-29T17:40:04.446Z,16.38
2019-03-29T17:42:32.675Z,16.26
2019-03-29T17:45:00.927Z,16.16
2019-03-29T17:47:29.191Z,16.05
2019-03-29T17:49:57.411Z,15.91
2019-03-29T17:52:25.645Z,15.78
2019-03-29T17:54:54.104Z,15.66
2019-03-29T17:57:22.431Z,14.92
2019-03-29T17:59:50.647Z,15.34
2019-03-29T18:02:19.015Z,15.21
2019-03-29T18:04:47.233Z,15.09
2019-03-29T18:07:15.457Z,14.94
2019-03-29T18:09:43.715Z,14.86
2019-03-29T18:12:11.926Z,14.74
2019-03-29T18:14:40.319Z,14.64
2019-03-29T18:17:08.560Z,14.50
2019-03-29T18:19:37.823Z,14.36
2019-03-29T18:22:06.293Z,14.24
2019-03-29T18:24:34.529Z,14.19
2019-03-29T18:27:02.745Z,14.06
2019-03-29T18:29:30.958Z,13.98
2019-03-29T18:31:59.254Z,13.85
2019-03-29T18:34:27.465Z,13.75
2019-03-29T18:36:55.704Z,13.67
2019-03-29T18:39:23.919Z,13.60
2019-03-29T18:41:52.149Z,13.48
2019-03-29T18:44:20.374Z,13.39
2019-03-29T18:46:48.633Z,13.34
2019-03-29T18:49:16.852Z,13.28
2019-03-29T18:51:45.074Z,13.27
2019-03-29T18:54:13.307Z,12.76
2019-03-29T18:56:41.522Z,13.14
2019-03-29T18:59:09.758Z,13.10
2019-03-29T19:01:37.974Z,13.06
2019-03-29T19:04:06.213Z,12.99
2019-03-29T19:06:34.434Z,12.95
2019-03-29T19:09:04.244Z,12.90
2019-03-29T19:11:32.481Z,12.81
2019-03-29T19:14:00.684Z,12.72
2019-03-29T19:16:28.931Z,12.63
2019-03-29T19:19:09.377Z,12.56
2019-03-29T19:21:27.123Z,12.46
2019-03-29T19:23:55.339Z,12.35
2019-03-29T19:26:23.589Z,12.25
2019-03-29T19:28:51.812Z,12.17
2019-03-29T19:31:20.446Z,12.11
2019-03-29T19:33:48.633Z,12.02
2019-03-29T19:36:16.876Z,11.97
2019-03-29T19:38:45.093Z,11.87
2019-03-29T19:41:13.318Z,11.81
2019-03-29T19:43:41.543Z,11.74
2019-03-29T19:46:09.762Z,11.66
2019-03-29T19:48:37.995Z,11.60
2019-03-29T19:51:06.216Z,11.53
2019-03-29T19:53:34.551Z,11.44
2019-03-29T19:56:02.780Z,11.40
2019-03-29T19:58:30.986Z,11.35
2019-03-29T20:00:59.373Z,11.29
2019-03-29T20:03:27.964Z,11.23
2019-03-29T20:05:56.515Z,11.19
2019-03-29T20:08:24.698Z,11.15
2019-03-29T20:10:52.916Z,11.12
2019-03-29T20:13:21.133Z,11.08
2019-03-29T20:15:49.357Z,11.03
2019-03-29T20:18:17.683Z,10.98
2019-03-29T20:20:45.879Z,10.90
2019-03-29T20:23:14.106Z,10.84
2019-03-29T20:25:42.369Z,10.80
2019-03-29T20:28:10.612Z,10.74
2019-03-29T20:30:38.820Z,10.72
2019-03-29T20:33:07.075Z,10.65
2019-03-29T20:35:35.305Z,10.61
2019-03-29T20:38:03.530Z,10.57
2019-03-29T20:40:32.173Z,10.53
2019-03-29T20:43:00.658Z,10.52
2019-03-29T20:45:28.872Z,10.49
2019-03-29T20:47:57.289Z,10.44
2019-03-29T20:50:25.515Z,10.38
2019-03-29T20:52:53.760Z,10.36
2019-03-29T20:55:21.973Z,10.28
2019-03-29T20:57:50.202Z,10.23
2019-03-29T21:00:18.566Z,10.16
2019-03-29T21:02:46.778Z,10.09
2019-03-29T21:05:15.037Z,10.04
2019-03-29T21:07:43.254Z,9.98
2019-03-29T21:10:12.529Z,9.93
2019-03-29T21:12:40.752Z,9.83
2019-03-29T21:15:08.955Z,9.78
2019-03-29T21:17:37.352Z,9.73
2019-03-29T21:20:08.242Z,9.69
2019-03-29T21:22:36.544Z,9.66
2019-03-29T21:25:06.760Z,9.62
2019-03-29T21:27:35.002Z,9.58
2019-03-29T21:30:03.269Z,9.51
2019-03-29T21:32:31.480Z,9.48
2019-03-29T21:34:59.834Z,9.44
2019-03-29T21:37:28.044Z,9.40
2019-03-29T21:39:56.268Z,9.33
2019-03-29T21:42:24.477Z,9.26
2019-03-29T21:44:52.723Z,9.23
2019-03-29T21:47:20.937Z,9.16
2019-03-29T21:49:49.186Z,9.09
2019-03-29T21:52:17.374Z,9.09
2019-03-29T21:54:45.918Z,9.06
2019-03-29T21:57:14.265Z,8.96
2019-03-29T21:59:42.474Z,8.91
2019-03-29T22:02:10.689Z,8.86
2019-03-29T22:04:38.921Z,8.81
2019-03-29T22:07:07.178Z,8.75
2019-03-29T22:09:37.218Z,8.69
2019-03-29T22:12:05.335Z,8.67
2019-03-29T22:14:33.546Z,8.63
2019-03-29T22:17:01.762Z,8.61
2019-03-29T22:19:29.986Z,8.55
2019-03-29T22:21:58.198Z,8.52
2019-03-29T22:24:26.427Z,8.50
2019-03-29T22:26:54.641Z,8.44
2019-03-29T22:29:22.891Z,8.41
2019-03-29T22:31:51.106Z,8.40
2019-03-29T22:34:19.324Z,8.37
2019-03-29T22:36:47.545Z,8.30
2019-03-29T22:39:15.791Z,8.27
2019-03-29T22:41:43.999Z,8.20
2019-03-29T22:44:12.230Z,8.16
2019-03-29T22:46:40.518Z,8.14
2019-03-29T22:49:08.743Z,8.10
2019-03-29T22:51:36.953Z,8.05
2019-03-29T22:54:05.176Z,8.00
2019-03-29T22:56:33.413Z,7.92
2019-03-29T22:59:01.669Z,7.96
2019-03-29T23:01:30.618Z,7.94
2019-03-29T23:03:58.838Z,7.87
2019-03-29T23:06:27.078Z,7.83
2019-03-29T23:08:55.282Z,7.79
2019-03-29T23:11:23.504Z,7.73
2019-03-29T23:13:51.720Z,7.67
2019-03-29T23:16:19.945Z,7.65
2019-03-29T23:18:48.170Z,7.60
2019-03-29T23:21:16.398Z,7.59
2019-03-29T23:23:44.616Z,7.56
2019-03-29T23:26:12.879Z,7.53
2019-03-29T23:28:41.099Z,7.49
2019-03-29T23:31:09.313Z,7.45
2019-03-29T23:33:37.539Z,7.43
2019-03-29T23:36:05.796Z,7.41
2019-03-29T23:38:34.015Z,7.37
2019-03-29T23:41:02.235Z,7.36
2019-03-29T23:43:30.451Z,7.33
2019-03-29T23:45:58.738Z,7.30
2019-03-29T23:48:26.990Z,7.26
2019-03-29T23:50:55.219Z,7.25
2019-03-29T23:53:23.452Z,7.21
2019-03-29T23:55:51.667Z,7.21
2019-03-29T23:58:19.906Z,7.20
